sensor_id;sensor_type;location;lat;lon;timestamp;P1;durP1;ratioP1;P2;durP2;ratioP2
9968;SDS011;5025;48.890;9.278;2023-09-18T00:01:03;3.03;;;2.83;;
9968;SDS011;5025;48.890;9.278;2023-09-18T00:03:30;2.80;;;2.70;;
9968;SDS011;5025;48.890;9.278;2023-09-18T00:05:56;3.13;;;2.97;;
9968;SDS011;5025;48.890;9.278;2023-09-18T00:08:21;2.80;;;2.70;;
9968;SDS011;5025;48.890;9.278;2023-09-18T00:10:47;2.83;;;2.70;;
9968;SDS011;5025;48.890;9.278;2023-09-18T00:13:14;2.90;;;2.70;;
9968;SDS011;5025;48.890;9.278;2023-09-18T00:15:39;2.77;;;2.67;;
9968;SDS011;5025;48.890;9.278;2023-09-18T00:18:06;2.87;;;2.77;;
9968;SDS011;5025;48.890;9.278;2023-09-18T00:20:31;3.00;;;2.80;;
9968;SDS011;5025;48.890;9.278;2023-09-18T00:22:56;3.03;;;2.93;;
9968;SDS011;5025;48.890;9.278;2023-09-18T00:25:22;3.07;;;2.87;;
9968;SDS011;5025;48.890;9.278;2023-09-18T00:27:48;3.00;;;2.90;;
9968;SDS011;5025;48.890;9.278;2023-09-18T00:30:14;2.80;;;2.70;;
9968;SDS011;5025;48.890;9.278;2023-09-18T00:32:39;3.13;;;2.93;;
9968;SDS011;5025;48.890;9.278;2023-09-18T00:35:04;2.67;;;2.57;;
9968;SDS011;5025;48.890;9.278;2023-09-18T00:37:30;3.23;;;3.03;;
9968;SDS011;5025;48.890;9.278;2023-09-18T00:39:55;3.20;;;3.00;;
9968;SDS011;5025;48.890;9.278;2023-09-18T00:42:20;2.90;;;2.80;;
9968;SDS011;5025;48.890;9.278;2023-09-18T00:44:47;3.07;;;2.90;;
9968;SDS011;5025;48.890;9.278;2023-09-18T00:47:13;3.20;;;3.10;;
9968;SDS011;5025;48.890;9.278;2023-09-18T00:49:40;3.20;;;3.00;;
9968;SDS011;5025;48.890;9.278;2023-09-18T00:52:07;3.40;;;3.17;;
9968;SDS011;5025;48.890;9.278;2023-09-18T00:54:34;3.30;;;3.10;;
9968;SDS011;5025;48.890;9.278;2023-09-18T00:57:02;3.20;;;3.10;;
9968;SDS011;5025;48.890;9.278;2023-09-18T00:59:28;3.47;;;3.17;;
9968;SDS011;5025;48.890;9.278;2023-09-18T01:01:53;3.20;;;3.00;;
9968;SDS011;5025;48.890;9.278;2023-09-18T01:04:19;3.50;;;3.30;;
9968;SDS011;5025;48.890;9.278;2023-09-18T01:06:44;3.43;;;3.23;;
9968;SDS011;5025;48.890;9.278;2023-09-18T01:09:10;3.13;;;2.93;;
9968;SDS011;5025;48.890;9.278;2023-09-18T01:11:46;3.20;;;3.00;;
9968;SDS011;5025;48.890;9.278;2023-09-18T01:17:08;3.30;;;3.10;;
9968;SDS011;5025;48.890;9.278;2023-09-18T01:19:39;3.00;;;2.90;;
9968;SDS011;5025;48.890;9.278;2023-09-18T01:22:06;3.10;;;3.00;;
9968;SDS011;5025;48.890;9.278;2023-09-18T01:24:33;3.00;;;2.90;;
9968;SDS011;5025;48.890;9.278;2023-09-18T01:26:59;3.27;;;3.07;;
9968;SDS011;5025;48.890;9.278;2023-09-18T01:29:25;2.90;;;2.70;;
9968;SDS011;5025;48.890;9.278;2023-09-18T01:31:50;3.40;;;3.20;;
9968;SDS011;5025;48.890;9.278;2023-09-18T01:34:16;3.67;;;3.37;;
9968;SDS011;5025;48.890;9.278;2023-09-18T01:36:44;3.67;;;3.40;;
9968;SDS011;5025;48.890;9.278;2023-09-18T01:39:11;3.30;;;3.10;;
9968;SDS011;5025;48.890;9.278;2023-09-18T01:41:37;3.23;;;3.03;;
9968;SDS011;5025;48.890;9.278;2023-09-18T01:44:03;3.20;;;3.00;;
9968;SDS011;5025;48.890;9.278;2023-09-18T01:46:29;3.13;;;2.93;;
9968;SDS011;5025;48.890;9.278;2023-09-18T01:48:57;3.37;;;3.17;;
9968;SDS011;5025;48.890;9.278;2023-09-18T01:51:23;3.00;;;2.80;;
9968;SDS011;5025;48.890;9.278;2023-09-18T01:53:49;3.33;;;3.10;;
9968;SDS011;5025;48.890;9.278;2023-09-18T01:56:14;3.40;;;3.20;;
9968;SDS011;5025;48.890;9.278;2023-09-18T01:58:39;3.50;;;3.30;;
9968;SDS011;5025;48.890;9.278;2023-09-18T02:01:04;3.83;;;3.60;;
9968;SDS011;5025;48.890;9.278;2023-09-18T02:03:32;3.60;;;3.40;;
9968;SDS011;5025;48.890;9.278;2023-09-18T02:05:57;3.40;;;3.20;;
9968;SDS011;5025;48.890;9.278;2023-09-18T02:08:22;3.23;;;3.03;;
9968;SDS011;5025;48.890;9.278;2023-09-18T02:10:48;3.50;;;3.30;;
9968;SDS011;5025;48.890;9.278;2023-09-18T02:13:13;3.60;;;3.20;;
9968;SDS011;5025;48.890;9.278;2023-09-18T02:15:38;3.67;;;3.47;;
9968;SDS011;5025;48.890;9.278;2023-09-18T02:18:04;3.60;;;3.40;;
9968;SDS011;5025;48.890;9.278;2023-09-18T02:20:29;3.50;;;3.20;;
9968;SDS011;5025;48.890;9.278;2023-09-18T02:22:54;2.97;;;2.73;;
9968;SDS011;5025;48.890;9.278;2023-09-18T02:25:19;3.10;;;2.80;;
9968;SDS011;5025;48.890;9.278;2023-09-18T02:27:45;3.00;;;2.80;;
9968;SDS011;5025;48.890;9.278;2023-09-18T02:30:10;2.60;;;2.40;;
9968;SDS011;5025;48.890;9.278;2023-09-18T02:32:36;3.07;;;2.63;;
9968;SDS011;5025;48.890;9.278;2023-09-18T02:35:01;3.47;;;2.60;;
9968;SDS011;5025;48.890;9.278;2023-09-18T02:37:27;3.57;;;2.80;;
9968;SDS011;5025;48.890;9.278;2023-09-18T02:39:54;2.70;;;2.50;;
9968;SDS011;5025;48.890;9.278;2023-09-18T02:42:19;2.90;;;2.70;;
9968;SDS011;5025;48.890;9.278;2023-09-18T02:44:44;2.87;;;2.67;;
9968;SDS011;5025;48.890;9.278;2023-09-18T02:47:10;4.53;;;2.80;;
9968;SDS011;5025;48.890;9.278;2023-09-18T02:49:35;4.20;;;3.20;;
9968;SDS011;5025;48.890;9.278;2023-09-18T02:52:00;2.83;;;2.63;;
9968;SDS011;5025;48.890;9.278;2023-09-18T02:54:25;3.80;;;3.17;;
9968;SDS011;5025;48.890;9.278;2023-09-18T02:56:51;3.30;;;2.70;;
9968;SDS011;5025;48.890;9.278;2023-09-18T02:59:17;3.40;;;3.00;;
9968;SDS011;5025;48.890;9.278;2023-09-18T03:01:42;4.07;;;3.10;;
9968;SDS011;5025;48.890;9.278;2023-09-18T03:04:07;5.13;;;3.30;;
9968;SDS011;5025;48.890;9.278;2023-09-18T03:06:32;3.47;;;3.17;;
9968;SDS011;5025;48.890;9.278;2023-09-18T03:08:58;3.70;;;2.70;;
9968;SDS011;5025;48.890;9.278;2023-09-18T03:11:23;2.90;;;2.70;;
9968;SDS011;5025;48.890;9.278;2023-09-18T03:13:52;2.97;;;2.77;;
9968;SDS011;5025;48.890;9.278;2023-09-18T03:16:17;3.27;;;2.70;;
9968;SDS011;5025;48.890;9.278;2023-09-18T03:18:42;2.93;;;2.73;;
9968;SDS011;5025;48.890;9.278;2023-09-18T03:21:08;3.23;;;2.73;;
9968;SDS011;5025;48.890;9.278;2023-09-18T03:23:33;3.20;;;2.90;;
9968;SDS011;5025;48.890;9.278;2023-09-18T03:26:00;2.80;;;2.60;;
9968;SDS011;5025;48.890;9.278;2023-09-18T03:28:25;3.33;;;2.90;;
9968;SDS011;5025;48.890;9.278;2023-09-18T03:30:51;3.70;;;3.20;;
9968;SDS011;5025;48.890;9.278;2023-09-18T03:33:16;3.30;;;2.97;;
9968;SDS011;5025;48.890;9.278;2023-09-18T03:35:48;3.23;;;2.83;;
9968;SDS011;5025;48.890;9.278;2023-09-18T03:38:14;3.10;;;2.70;;
9968;SDS011;5025;48.890;9.278;2023-09-18T03:40:40;4.17;;;3.00;;
9968;SDS011;5025;48.890;9.278;2023-09-18T03:43:06;3.17;;;2.77;;
9968;SDS011;5025;48.890;9.278;2023-09-18T03:45:32;3.67;;;2.73;;
9968;SDS011;5025;48.890;9.278;2023-09-18T03:47:57;3.53;;;2.80;;
9968;SDS011;5025;48.890;9.278;2023-09-18T03:50:22;2.73;;;2.53;;
9968;SDS011;5025;48.890;9.278;2023-09-18T03:52:48;2.97;;;2.77;;
9968;SDS011;5025;48.890;9.278;2023-09-18T03:55:13;3.40;;;3.10;;
9968;SDS011;5025;48.890;9.278;2023-09-18T03:57:39;3.10;;;2.80;;
9968;SDS011;5025;48.890;9.278;2023-09-18T04:00:05;3.70;;;3.13;;
9968;SDS011;5025;48.890;9.278;2023-09-18T04:02:32;3.30;;;3.03;;
9968;SDS011;5025;48.890;9.278;2023-09-18T04:04:57;4.07;;;3.10;;
9968;SDS011;5025;48.890;9.278;2023-09-18T04:07:23;3.27;;;2.97;;
9968;SDS011;5025;48.890;9.278;2023-09-18T04:09:48;3.10;;;2.90;;
9968;SDS011;5025;48.890;9.278;2023-09-18T04:12:13;4.43;;;3.50;;
9968;SDS011;5025;48.890;9.278;2023-09-18T04:14:39;4.57;;;2.97;;
9968;SDS011;5025;48.890;9.278;2023-09-18T04:17:04;3.20;;;2.93;;
9968;SDS011;5025;48.890;9.278;2023-09-18T04:19:30;4.20;;;3.00;;
9968;SDS011;5025;48.890;9.278;2023-09-18T04:21:55;3.47;;;3.10;;
9968;SDS011;5025;48.890;9.278;2023-09-18T04:24:21;6.03;;;3.30;;
9968;SDS011;5025;48.890;9.278;2023-09-18T04:26:48;4.53;;;3.20;;
9968;SDS011;5025;48.890;9.278;2023-09-18T04:29:15;3.47;;;3.00;;
9968;SDS011;5025;48.890;9.278;2023-09-18T04:31:41;4.33;;;3.00;;
9968;SDS011;5025;48.890;9.278;2023-09-18T04:34:06;3.70;;;3.03;;
9968;SDS011;5025;48.890;9.278;2023-09-18T04:36:32;4.30;;;2.90;;
9968;SDS011;5025;48.890;9.278;2023-09-18T04:38:57;2.87;;;2.63;;
9968;SDS011;5025;48.890;9.278;2023-09-18T04:41:22;4.70;;;3.20;;
9968;SDS011;5025;48.890;9.278;2023-09-18T04:43:48;3.73;;;2.97;;
9968;SDS011;5025;48.890;9.278;2023-09-18T04:46:13;3.20;;;2.83;;
9968;SDS011;5025;48.890;9.278;2023-09-18T04:48:38;5.17;;;2.80;;
9968;SDS011;5025;48.890;9.278;2023-09-18T04:51:04;3.33;;;2.63;;
9968;SDS011;5025;48.890;9.278;2023-09-18T04:53:29;2.97;;;2.67;;
9968;SDS011;5025;48.890;9.278;2023-09-18T04:55:56;2.77;;;2.57;;
9968;SDS011;5025;48.890;9.278;2023-09-18T04:58:21;3.73;;;2.77;;
9968;SDS011;5025;48.890;9.278;2023-09-18T05:00:47;5.77;;;3.30;;
9968;SDS011;5025;48.890;9.278;2023-09-18T05:03:18;2.70;;;2.50;;
9968;SDS011;5025;48.890;9.278;2023-09-18T05:05:43;2.97;;;2.77;;
9968;SDS011;5025;48.890;9.278;2023-09-18T05:08:09;2.97;;;2.70;;
9968;SDS011;5025;48.890;9.278;2023-09-18T05:10:34;3.57;;;2.70;;
9968;SDS011;5025;48.890;9.278;2023-09-18T05:12:59;3.17;;;2.93;;
9968;SDS011;5025;48.890;9.278;2023-09-18T05:15:25;4.03;;;3.20;;
9968;SDS011;5025;48.890;9.278;2023-09-18T05:17:54;3.10;;;2.80;;
9968;SDS011;5025;48.890;9.278;2023-09-18T05:20:22;4.53;;;3.10;;
9968;SDS011;5025;48.890;9.278;2023-09-18T05:22:50;2.87;;;2.40;;
9968;SDS011;5025;48.890;9.278;2023-09-18T05:25:18;3.33;;;3.03;;
9968;SDS011;5025;48.890;9.278;2023-09-18T05:27:43;3.60;;;3.00;;
9968;SDS011;5025;48.890;9.278;2023-09-18T05:30:10;4.43;;;2.90;;
9968;SDS011;5025;48.890;9.278;2023-09-18T05:32:37;4.50;;;2.80;;
9968;SDS011;5025;48.890;9.278;2023-09-18T05:35:02;4.27;;;2.80;;
9968;SDS011;5025;48.890;9.278;2023-09-18T05:37:31;4.17;;;3.20;;
9968;SDS011;5025;48.890;9.278;2023-09-18T05:39:56;5.23;;;3.23;;
9968;SDS011;5025;48.890;9.278;2023-09-18T05:42:22;3.83;;;3.00;;
9968;SDS011;5025;48.890;9.278;2023-09-18T05:44:48;4.27;;;3.27;;
9968;SDS011;5025;48.890;9.278;2023-09-18T05:47:13;4.67;;;3.00;;
9968;SDS011;5025;48.890;9.278;2023-09-18T05:49:38;3.57;;;2.70;;
9968;SDS011;5025;48.890;9.278;2023-09-18T05:52:04;3.37;;;2.93;;
9968;SDS011;5025;48.890;9.278;2023-09-18T05:54:29;5.60;;;3.20;;
9968;SDS011;5025;48.890;9.278;2023-09-18T05:56:54;5.50;;;3.17;;
9968;SDS011;5025;48.890;9.278;2023-09-18T05:59:19;3.83;;;3.10;;
9968;SDS011;5025;48.890;9.278;2023-09-18T06:01:45;3.33;;;3.03;;
9968;SDS011;5025;48.890;9.278;2023-09-18T06:04:10;3.37;;;2.83;;
9968;SDS011;5025;48.890;9.278;2023-09-18T06:06:35;3.23;;;2.90;;
9968;SDS011;5025;48.890;9.278;2023-09-18T06:09:01;3.93;;;3.30;;
9968;SDS011;5025;48.890;9.278;2023-09-18T06:11:26;3.20;;;2.90;;
9968;SDS011;5025;48.890;9.278;2023-09-18T06:13:52;4.17;;;3.10;;
9968;SDS011;5025;48.890;9.278;2023-09-18T06:16:17;3.40;;;3.10;;
9968;SDS011;5025;48.890;9.278;2023-09-18T06:18:42;4.83;;;3.20;;
9968;SDS011;5025;48.890;9.278;2023-09-18T06:21:09;3.73;;;2.83;;
9968;SDS011;5025;48.890;9.278;2023-09-18T06:23:34;4.27;;;3.00;;
9968;SDS011;5025;48.890;9.278;2023-09-18T06:25:59;4.43;;;2.87;;
9968;SDS011;5025;48.890;9.278;2023-09-18T06:28:25;2.70;;;2.43;;
9968;SDS011;5025;48.890;9.278;2023-09-18T06:30:50;5.30;;;2.83;;
9968;SDS011;5025;48.890;9.278;2023-09-18T06:33:16;2.93;;;2.73;;
9968;SDS011;5025;48.890;9.278;2023-09-18T06:35:41;2.60;;;2.40;;
9968;SDS011;5025;48.890;9.278;2023-09-18T06:38:07;3.83;;;2.60;;
9968;SDS011;5025;48.890;9.278;2023-09-18T06:40:35;8.43;;;2.80;;
9968;SDS011;5025;48.890;9.278;2023-09-18T06:43:00;3.80;;;2.70;;
9968;SDS011;5025;48.890;9.278;2023-09-18T06:45:26;3.60;;;2.93;;
9968;SDS011;5025;48.890;9.278;2023-09-18T06:47:52;2.73;;;2.53;;
9968;SDS011;5025;48.890;9.278;2023-09-18T06:50:18;3.57;;;2.80;;
9968;SDS011;5025;48.890;9.278;2023-09-18T06:52:43;2.73;;;2.53;;
9968;SDS011;5025;48.890;9.278;2023-09-18T06:55:09;3.60;;;2.80;;
9968;SDS011;5025;48.890;9.278;2023-09-18T06:57:34;5.30;;;3.00;;
9968;SDS011;5025;48.890;9.278;2023-09-18T07:00:00;5.43;;;2.80;;
9968;SDS011;5025;48.890;9.278;2023-09-18T07:02:25;3.43;;;2.53;;
9968;SDS011;5025;48.890;9.278;2023-09-18T07:04:50;4.40;;;2.80;;
9968;SDS011;5025;48.890;9.278;2023-09-18T07:07:16;3.50;;;2.70;;
9968;SDS011;5025;48.890;9.278;2023-09-18T07:09:41;4.60;;;2.70;;
9968;SDS011;5025;48.890;9.278;2023-09-18T07:12:07;3.00;;;2.70;;
9968;SDS011;5025;48.890;9.278;2023-09-18T07:14:34;4.10;;;2.60;;
9968;SDS011;5025;48.890;9.278;2023-09-18T07:17:00;6.17;;;2.57;;
9968;SDS011;5025;48.890;9.278;2023-09-18T07:19:26;3.33;;;2.40;;
9968;SDS011;5025;48.890;9.278;2023-09-18T07:21:51;3.17;;;2.20;;
9968;SDS011;5025;48.890;9.278;2023-09-18T07:24:16;4.40;;;2.50;;
9968;SDS011;5025;48.890;9.278;2023-09-18T07:26:43;4.07;;;2.13;;
9968;SDS011;5025;48.890;9.278;2023-09-18T07:29:13;6.53;;;2.47;;
9968;SDS011;5025;48.890;9.278;2023-09-18T07:31:41;4.40;;;2.60;;
9968;SDS011;5025;48.890;9.278;2023-09-18T07:34:07;3.17;;;2.20;;
9968;SDS011;5025;48.890;9.278;2023-09-18T07:36:33;2.73;;;2.10;;
9968;SDS011;5025;48.890;9.278;2023-09-18T07:38:59;2.47;;;2.13;;
9968;SDS011;5025;48.890;9.278;2023-09-18T07:41:24;3.83;;;2.20;;
9968;SDS011;5025;48.890;9.278;2023-09-18T07:43:50;3.00;;;1.97;;
9968;SDS011;5025;48.890;9.278;2023-09-18T07:46:15;3.40;;;2.20;;
9968;SDS011;5025;48.890;9.278;2023-09-18T07:48:41;2.90;;;2.40;;
9968;SDS011;5025;48.890;9.278;2023-09-18T07:51:06;1.90;;;1.80;;
9968;SDS011;5025;48.890;9.278;2023-09-18T07:53:31;2.67;;;2.10;;
9968;SDS011;5025;48.890;9.278;2023-09-18T07:55:57;3.40;;;2.00;;
9968;SDS011;5025;48.890;9.278;2023-09-18T07:58:23;2.03;;;1.93;;
9968;SDS011;5025;48.890;9.278;2023-09-18T08:00:52;3.03;;;2.20;;
9968;SDS011;5025;48.890;9.278;2023-09-18T08:03:18;2.73;;;1.80;;
9968;SDS011;5025;48.890;9.278;2023-09-18T08:05:44;3.23;;;2.00;;
9968;SDS011;5025;48.890;9.278;2023-09-18T08:08:09;4.60;;;2.13;;
9968;SDS011;5025;48.890;9.278;2023-09-18T08:10:36;2.30;;;2.07;;
9968;SDS011;5025;48.890;9.278;2023-09-18T08:13:02;2.70;;;1.87;;
9968;SDS011;5025;48.890;9.278;2023-09-18T08:15:28;3.43;;;2.17;;
9968;SDS011;5025;48.890;9.278;2023-09-18T08:17:54;2.10;;;1.87;;
9968;SDS011;5025;48.890;9.278;2023-09-18T08:20:19;2.57;;;1.90;;
9968;SDS011;5025;48.890;9.278;2023-09-18T08:22:44;3.33;;;2.00;;
9968;SDS011;5025;48.890;9.278;2023-09-18T08:25:10;4.37;;;2.00;;
9968;SDS011;5025;48.890;9.278;2023-09-18T08:27:37;2.93;;;1.80;;
9968;SDS011;5025;48.890;9.278;2023-09-18T08:30:07;3.10;;;1.90;;
9968;SDS011;5025;48.890;9.278;2023-09-18T08:32:34;3.17;;;2.03;;
9968;SDS011;5025;48.890;9.278;2023-09-18T08:35:00;3.07;;;1.70;;
9968;SDS011;5025;48.890;9.278;2023-09-18T08:37:27;2.13;;;1.80;;
9968;SDS011;5025;48.890;9.278;2023-09-18T08:39:52;1.50;;;1.40;;
9968;SDS011;5025;48.890;9.278;2023-09-18T08:42:17;3.37;;;1.80;;
9968;SDS011;5025;48.890;9.278;2023-09-18T08:44:45;2.83;;;1.57;;
9968;SDS011;5025;48.890;9.278;2023-09-18T08:47:14;4.73;;;2.10;;
9968;SDS011;5025;48.890;9.278;2023-09-18T08:49:40;5.20;;;1.60;;
9968;SDS011;5025;48.890;9.278;2023-09-18T08:52:06;2.70;;;1.40;;
9968;SDS011;5025;48.890;9.278;2023-09-18T08:54:33;2.70;;;1.20;;
9968;SDS011;5025;48.890;9.278;2023-09-18T08:56:58;1.63;;;1.13;;
9968;SDS011;5025;48.890;9.278;2023-09-18T08:59:24;2.77;;;1.30;;
9968;SDS011;5025;48.890;9.278;2023-09-18T09:01:51;1.87;;;1.30;;
9968;SDS011;5025;48.890;9.278;2023-09-18T09:04:17;1.30;;;1.20;;
9968;SDS011;5025;48.890;9.278;2023-09-18T09:06:42;2.93;;;1.23;;
9968;SDS011;5025;48.890;9.278;2023-09-18T09:09:08;1.47;;;1.30;;
9968;SDS011;5025;48.890;9.278;2023-09-18T09:11:34;1.33;;;1.23;;
9968;SDS011;5025;48.890;9.278;2023-09-18T09:14:09;2.70;;;1.27;;
9968;SDS011;5025;48.890;9.278;2023-09-18T09:16:38;1.80;;;1.30;;
9968;SDS011;5025;48.890;9.278;2023-09-18T09:19:04;2.20;;;1.20;;
9968;SDS011;5025;48.890;9.278;2023-09-18T09:21:39;2.17;;;1.27;;
9968;SDS011;5025;48.890;9.278;2023-09-18T09:24:06;1.33;;;1.20;;
9968;SDS011;5025;48.890;9.278;2023-09-18T09:26:32;1.87;;;1.10;;
9968;SDS011;5025;48.890;9.278;2023-09-18T09:28:57;1.73;;;1.30;;
9968;SDS011;5025;48.890;9.278;2023-09-18T09:31:40;1.97;;;1.40;;
9968;SDS011;5025;48.890;9.278;2023-09-18T09:34:05;1.40;;;1.20;;
9968;SDS011;5025;48.890;9.278;2023-09-18T09:36:30;1.20;;;1.10;;
9968;SDS011;5025;48.890;9.278;2023-09-18T09:38:58;1.50;;;1.20;;
9968;SDS011;5025;48.890;9.278;2023-09-18T09:41:23;1.17;;;1.07;;
9968;SDS011;5025;48.890;9.278;2023-09-18T09:43:51;2.10;;;1.40;;
9968;SDS011;5025;48.890;9.278;2023-09-18T09:46:16;1.37;;;1.27;;
9968;SDS011;5025;48.890;9.278;2023-09-18T09:49:03;1.27;;;1.17;;
9968;SDS011;5025;48.890;9.278;2023-09-18T09:51:30;1.60;;;1.50;;
9968;SDS011;5025;48.890;9.278;2023-09-18T09:53:55;1.33;;;1.20;;
9968;SDS011;5025;48.890;9.278;2023-09-18T09:56:23;1.53;;;1.30;;
9968;SDS011;5025;48.890;9.278;2023-09-18T09:59:07;1.70;;;1.27;;
9968;SDS011;5025;48.890;9.278;2023-09-18T10:01:33;1.30;;;1.30;;
9968;SDS011;5025;48.890;9.278;2023-09-18T10:03:59;1.40;;;1.27;;
9968;SDS011;5025;48.890;9.278;2023-09-18T10:06:30;1.30;;;1.30;;
9968;SDS011;5025;48.890;9.278;2023-09-18T10:08:58;1.17;;;1.17;;
9968;SDS011;5025;48.890;9.278;2023-09-18T10:11:24;1.10;;;1.10;;
9968;SDS011;5025;48.890;9.278;2023-09-18T10:13:59;1.10;;;1.10;;
9968;SDS011;5025;48.890;9.278;2023-09-18T10:16:30;1.87;;;1.30;;
9968;SDS011;5025;48.890;9.278;2023-09-18T10:21:41;1.67;;;1.10;;
9968;SDS011;5025;48.890;9.278;2023-09-18T10:24:23;3.00;;;1.50;;
9968;SDS011;5025;48.890;9.278;2023-09-18T10:29:23;1.53;;;1.43;;
9968;SDS011;5025;48.890;9.278;2023-09-18T10:31:50;2.00;;;1.50;;
9968;SDS011;5025;48.890;9.278;2023-09-18T10:34:19;3.57;;;1.60;;
9968;SDS011;5025;48.890;9.278;2023-09-18T10:36:47;1.50;;;1.40;;
9968;SDS011;5025;48.890;9.278;2023-09-18T10:39:14;1.57;;;1.47;;
9968;SDS011;5025;48.890;9.278;2023-09-18T10:41:44;2.37;;;1.50;;
9968;SDS011;5025;48.890;9.278;2023-09-18T10:44:12;1.93;;;1.50;;
9968;SDS011;5025;48.890;9.278;2023-09-18T10:46:38;1.80;;;1.43;;
9968;SDS011;5025;48.890;9.278;2023-09-18T10:49:04;2.87;;;1.57;;
9968;SDS011;5025;48.890;9.278;2023-09-18T10:51:30;2.40;;;1.53;;
9968;SDS011;5025;48.890;9.278;2023-09-18T10:53:57;2.13;;;1.70;;
9968;SDS011;5025;48.890;9.278;2023-09-18T10:56:23;5.43;;;1.70;;
9968;SDS011;5025;48.890;9.278;2023-09-18T10:58:55;2.00;;;1.50;;
9968;SDS011;5025;48.890;9.278;2023-09-18T11:01:24;1.80;;;1.57;;
9968;SDS011;5025;48.890;9.278;2023-09-18T11:03:52;2.03;;;1.33;;
9968;SDS011;5025;48.890;9.278;2023-09-18T11:06:18;3.07;;;1.50;;
9968;SDS011;5025;48.890;9.278;2023-09-18T11:08:46;2.77;;;1.70;;
9968;SDS011;5025;48.890;9.278;2023-09-18T11:11:17;2.23;;;1.33;;
9968;SDS011;5025;48.890;9.278;2023-09-18T11:13:46;3.77;;;1.80;;
9968;SDS011;5025;48.890;9.278;2023-09-18T11:16:32;2.97;;;1.57;;
9968;SDS011;5025;48.890;9.278;2023-09-18T11:21:26;1.60;;;1.50;;
9968;SDS011;5025;48.890;9.278;2023-09-18T11:24:00;1.47;;;1.37;;
9968;SDS011;5025;48.890;9.278;2023-09-18T11:26:29;1.60;;;1.50;;
9968;SDS011;5025;48.890;9.278;2023-09-18T11:28:58;1.50;;;1.40;;
9968;SDS011;5025;48.890;9.278;2023-09-18T11:31:40;2.43;;;1.40;;
9968;SDS011;5025;48.890;9.278;2023-09-18T11:34:11;2.07;;;1.60;;
9968;SDS011;5025;48.890;9.278;2023-09-18T11:36:37;1.67;;;1.50;;
9968;SDS011;5025;48.890;9.278;2023-09-18T11:39:03;1.60;;;1.50;;
9968;SDS011;5025;48.890;9.278;2023-09-18T11:41:29;2.33;;;1.50;;
9968;SDS011;5025;48.890;9.278;2023-09-18T11:46:47;1.63;;;1.53;;
9968;SDS011;5025;48.890;9.278;2023-09-18T11:49:15;2.40;;;1.50;;
9968;SDS011;5025;48.890;9.278;2023-09-18T11:51:47;2.13;;;1.20;;
9968;SDS011;5025;48.890;9.278;2023-09-18T11:54:13;1.97;;;1.50;;
9968;SDS011;5025;48.890;9.278;2023-09-18T11:56:40;3.03;;;1.50;;
9968;SDS011;5025;48.890;9.278;2023-09-18T11:59:06;2.17;;;1.40;;
9968;SDS011;5025;48.890;9.278;2023-09-18T12:01:31;1.77;;;1.50;;
9968;SDS011;5025;48.890;9.278;2023-09-18T12:04:06;2.23;;;1.60;;
9968;SDS011;5025;48.890;9.278;2023-09-18T12:06:35;1.20;;;1.20;;
9968;SDS011;5025;48.890;9.278;2023-09-18T12:09:01;1.73;;;1.27;;
9968;SDS011;5025;48.890;9.278;2023-09-18T12:11:28;1.73;;;1.63;;
9968;SDS011;5025;48.890;9.278;2023-09-18T12:13:54;1.37;;;1.17;;
9968;SDS011;5025;48.890;9.278;2023-09-18T12:16:19;1.20;;;1.13;;
9968;SDS011;5025;48.890;9.278;2023-09-18T12:18:45;1.30;;;1.20;;
9968;SDS011;5025;48.890;9.278;2023-09-18T12:21:14;1.87;;;1.30;;
9968;SDS011;5025;48.890;9.278;2023-09-18T12:23:42;1.77;;;1.40;;
9968;SDS011;5025;48.890;9.278;2023-09-18T12:26:10;1.87;;;1.50;;
9968;SDS011;5025;48.890;9.278;2023-09-18T12:28:38;1.40;;;1.30;;
9968;SDS011;5025;48.890;9.278;2023-09-18T12:31:04;1.30;;;1.30;;
9968;SDS011;5025;48.890;9.278;2023-09-18T12:33:35;1.83;;;1.30;;
9968;SDS011;5025;48.890;9.278;2023-09-18T12:36:02;1.53;;;1.30;;
9968;SDS011;5025;48.890;9.278;2023-09-18T12:38:29;1.10;;;1.10;;
9968;SDS011;5025;48.890;9.278;2023-09-18T12:40:55;1.33;;;1.23;;
9968;SDS011;5025;48.890;9.278;2023-09-18T12:43:21;1.77;;;1.30;;
9968;SDS011;5025;48.890;9.278;2023-09-18T12:45:47;1.03;;;0.90;;
9968;SDS011;5025;48.890;9.278;2023-09-18T12:48:14;1.57;;;1.40;;
9968;SDS011;5025;48.890;9.278;2023-09-18T12:50:40;1.20;;;1.20;;
9968;SDS011;5025;48.890;9.278;2023-09-18T12:53:09;1.67;;;1.33;;
9968;SDS011;5025;48.890;9.278;2023-09-18T12:55:36;1.50;;;1.40;;
9968;SDS011;5025;48.890;9.278;2023-09-18T12:58:02;1.30;;;1.27;;
9968;SDS011;5025;48.890;9.278;2023-09-18T13:00:32;1.40;;;1.30;;
9968;SDS011;5025;48.890;9.278;2023-09-18T13:02:59;1.30;;;1.20;;
9968;SDS011;5025;48.890;9.278;2023-09-18T13:05:24;1.20;;;1.20;;
9968;SDS011;5025;48.890;9.278;2023-09-18T13:08:00;1.90;;;1.30;;
9968;SDS011;5025;48.890;9.278;2023-09-18T13:10:27;1.07;;;1.07;;
9968;SDS011;5025;48.890;9.278;2023-09-18T13:12:53;1.30;;;1.10;;
9968;SDS011;5025;48.890;9.278;2023-09-18T13:15:30;1.40;;;1.30;;
9968;SDS011;5025;48.890;9.278;2023-09-18T13:18:00;1.50;;;1.20;;
9968;SDS011;5025;48.890;9.278;2023-09-18T13:20:33;1.50;;;1.30;;
9968;SDS011;5025;48.890;9.278;2023-09-18T13:22:59;1.30;;;1.30;;
9968;SDS011;5025;48.890;9.278;2023-09-18T13:25:28;1.70;;;1.37;;
9968;SDS011;5025;48.890;9.278;2023-09-18T13:27:59;2.20;;;1.40;;
9968;SDS011;5025;48.890;9.278;2023-09-18T13:30:25;1.40;;;1.30;;
9968;SDS011;5025;48.890;9.278;2023-09-18T13:32:51;2.30;;;1.30;;
9968;SDS011;5025;48.890;9.278;2023-09-18T13:35:16;1.43;;;1.30;;
9968;SDS011;5025;48.890;9.278;2023-09-18T13:37:42;1.30;;;1.30;;
9968;SDS011;5025;48.890;9.278;2023-09-18T13:40:08;2.30;;;1.40;;
9968;SDS011;5025;48.890;9.278;2023-09-18T13:42:35;1.40;;;1.30;;
9968;SDS011;5025;48.890;9.278;2023-09-18T13:45:01;1.60;;;1.50;;
9968;SDS011;5025;48.890;9.278;2023-09-18T13:47:31;1.40;;;1.30;;
9968;SDS011;5025;48.890;9.278;2023-09-18T13:49:56;2.20;;;1.30;;
9968;SDS011;5025;48.890;9.278;2023-09-18T13:52:22;1.37;;;1.27;;
9968;SDS011;5025;48.890;9.278;2023-09-18T13:54:48;1.93;;;1.40;;
9968;SDS011;5025;48.890;9.278;2023-09-18T13:57:16;1.37;;;1.27;;
9968;SDS011;5025;48.890;9.278;2023-09-18T13:59:43;2.80;;;1.40;;
9968;SDS011;5025;48.890;9.278;2023-09-18T14:02:08;1.40;;;1.30;;
9968;SDS011;5025;48.890;9.278;2023-09-18T14:04:33;2.97;;;1.30;;
9968;SDS011;5025;48.890;9.278;2023-09-18T14:06:59;1.90;;;1.60;;
9968;SDS011;5025;48.890;9.278;2023-09-18T14:09:24;1.57;;;1.10;;
9968;SDS011;5025;48.890;9.278;2023-09-18T14:11:50;1.87;;;1.30;;
9968;SDS011;5025;48.890;9.278;2023-09-18T14:14:15;2.40;;;1.33;;
9968;SDS011;5025;48.890;9.278;2023-09-18T14:16:40;3.03;;;1.20;;
9968;SDS011;5025;48.890;9.278;2023-09-18T14:19:05;1.20;;;1.20;;
9968;SDS011;5025;48.890;9.278;2023-09-18T14:21:31;1.23;;;1.20;;
9968;SDS011;5025;48.890;9.278;2023-09-18T14:23:57;1.43;;;1.33;;
9968;SDS011;5025;48.890;9.278;2023-09-18T14:26:23;1.47;;;1.37;;
9968;SDS011;5025;48.890;9.278;2023-09-18T14:28:48;1.67;;;1.20;;
9968;SDS011;5025;48.890;9.278;2023-09-18T14:31:13;2.93;;;1.50;;
9968;SDS011;5025;48.890;9.278;2023-09-18T14:33:38;1.60;;;1.33;;
9968;SDS011;5025;48.890;9.278;2023-09-18T14:36:05;1.27;;;1.17;;
9968;SDS011;5025;48.890;9.278;2023-09-18T14:38:31;1.10;;;1.10;;
9968;SDS011;5025;48.890;9.278;2023-09-18T14:40:57;2.60;;;1.40;;
9968;SDS011;5025;48.890;9.278;2023-09-18T14:43:27;1.00;;;1.00;;
9968;SDS011;5025;48.890;9.278;2023-09-18T14:45:52;1.73;;;1.30;;
9968;SDS011;5025;48.890;9.278;2023-09-18T14:48:20;2.40;;;1.30;;
9968;SDS011;5025;48.890;9.278;2023-09-18T14:50:52;1.37;;;1.27;;
9968;SDS011;5025;48.890;9.278;2023-09-18T14:53:18;1.40;;;1.23;;
9968;SDS011;5025;48.890;9.278;2023-09-18T14:55:43;1.53;;;1.40;;
9968;SDS011;5025;48.890;9.278;2023-09-18T14:58:09;1.20;;;1.10;;
9968;SDS011;5025;48.890;9.278;2023-09-18T15:00:34;1.47;;;1.40;;
9968;SDS011;5025;48.890;9.278;2023-09-18T15:02:59;1.40;;;1.30;;
9968;SDS011;5025;48.890;9.278;2023-09-18T15:05:25;1.70;;;1.60;;
9968;SDS011;5025;48.890;9.278;2023-09-18T15:07:50;1.97;;;1.17;;
9968;SDS011;5025;48.890;9.278;2023-09-18T15:10:15;1.97;;;1.27;;
9968;SDS011;5025;48.890;9.278;2023-09-18T15:12:41;2.07;;;1.27;;
9968;SDS011;5025;48.890;9.278;2023-09-18T15:15:07;2.03;;;1.30;;
9968;SDS011;5025;48.890;9.278;2023-09-18T15:17:32;2.53;;;1.20;;
9968;SDS011;5025;48.890;9.278;2023-09-18T15:19:59;1.57;;;1.20;;
9968;SDS011;5025;48.890;9.278;2023-09-18T15:22:24;1.33;;;1.17;;
9968;SDS011;5025;48.890;9.278;2023-09-18T15:24:50;1.10;;;1.10;;